Time;durP1;ratioP1;P1;durP2;ratioP2;P2;SDS_P1;SDS_P2;PMS_P1;PMS_P2;Temp;Humidity;BMP_temperature;BMP_pressure;BME280_temperature;BME280_humidity;BME280_pressure;Samples;Min_cycle;Max_cycle;Signal;HPM_P1;HPM_P2
2022/09/21 00:00:41;;;;;;;9.00;3.80;;;9.60;99.90;;;;;;5114546;28;20065;-55
2022/09/21 00:03:08;;;;;;;10.95;3.58;;;9.70;99.90;;;;;;5114687;28;20248;-54
2022/09/21 00:05:33;;;;;;;11.13;3.78;;;9.60;99.90;;;;;;5096622;28;20093;-55
2022/09/21 00:08:01;;;;;;;10.32;3.80;;;9.70;99.90;;;;;;5114809;28;20044;-52
2022/09/21 00:10:27;;;;;;;9.98;3.25;;;9.70;99.90;;;;;;5114728;28;20885;-54
2022/09/21 00:12:54;;;;;;;8.65;4.55;;;9.60;99.90;;;;;;5114565;28;20055;-54
2022/09/21 00:15:21;;;;;;;11.20;3.55;;;9.60;99.90;;;;;;5114358;28;20471;-54
2022/09/21 00:17:46;;;;;;;7.47;3.58;;;9.50;99.90;;;;;;5114046;28;20082;-55
2022/09/21 00:20:14;;;;;;;8.77;3.55;;;9.40;99.90;;;;;;5114255;28;20072;-54
2022/09/21 00:22:40;;;;;;;7.75;3.55;;;9.40;99.90;;;;;;5114378;28;20039;-51
2022/09/21 00:25:07;;;;;;;8.73;3.70;;;9.40;99.90;;;;;;5113696;28;20039;-52
2022/09/21 00:27:33;;;;;;;9.43;3.63;;;9.30;99.90;;;;;;5114360;28;20044;-51
2022/09/21 00:30:01;;;;;;;10.25;3.90;;;9.30;99.90;;;;;;5114068;28;20085;-53
2022/09/21 00:32:30;;;;;;;6.38;3.15;;;9.30;99.90;;;;;;5114121;28;20039;-54
2022/09/21 00:34:57;;;;;;;10.43;3.90;;;9.20;99.90;;;;;;5114008;28;20039;-55
2022/09/21 00:37:23;;;;;;;8.43;3.30;;;9.20;99.90;;;;;;5112030;28;20046;-54
2022/09/21 00:39:49;;;;;;;11.57;3.42;;;9.20;99.90;;;;;;5094126;28;20070;-55
2022/09/21 00:42:30;;;;;;;9.18;3.60;;;9.20;99.90;;;;;;5095736;28;20078;-55
2022/09/21 00:44:56;;;;;;;11.47;3.93;;;9.10;99.90;;;;;;5079061;28;20396;-52
2022/09/21 00:47:43;;;;;;;10.30;3.70;;;9.10;99.90;;;;;;5095794;28;20639;-54
2022/09/21 00:50:14;;;;;;;10.02;3.13;;;9.20;99.90;;;;;;5113635;28;20043;-52
2022/09/21 00:52:54;;;;;;;9.95;3.50;;;9.10;99.90;;;;;;5113808;28;20094;-52
2022/09/21 00:55:36;;;;;;;8.13;3.40;;;9.20;99.90;;;;;;5113413;28;20487;-54
2022/09/21 00:58:08;;;;;;;10.70;3.88;;;9.20;99.90;;;;;;5113834;28;20052;-55
2022/09/21 01:00:39;;;;;;;11.32;4.32;;;9.30;99.90;;;;;;5113736;28;20032;-54
2022/09/21 01:03:05;;;;;;;10.05;4.05;;;9.30;99.90;;;;;;5113596;28;20065;-55
2022/09/21 01:05:31;;;;;;;7.57;3.42;;;9.30;99.90;;;;;;5113924;28;20372;-55
2022/09/21 01:08:00;;;;;;;10.48;3.90;;;9.30;99.90;;;;;;5113652;28;20058;-54
2022/09/21 01:10:34;;;;;;;8.82;3.72;;;9.20;99.90;;;;;;5113599;28;20098;-54
2022/09/21 01:13:21;;;;;;;9.23;3.67;;;9.30;99.90;;;;;;5113560;28;20043;-53
2022/09/21 01:15:53;;;;;;;11.95;5.13;;;9.30;99.90;;;;;;5113180;28;20118;-55
2022/09/21 01:18:19;;;;;;;12.63;3.72;;;9.20;99.90;;;;;;5113128;28;20047;-56
2022/09/21 01:21:03;;;;;;;10.00;3.50;;;9.10;99.90;;;;;;5113366;28;20043;-52
2022/09/21 01:23:38;;;;;;;9.77;3.80;;;9.10;99.90;;;;;;5113163;28;20108;-53
2022/09/21 01:26:41;;;;;;;10.38;3.58;;;9.00;99.90;;;;;;5113200;28;20035;-54
2022/09/21 01:29:30;;;;;;;10.70;3.70;;;9.10;99.90;;;;;;5113278;28;20055;-53
2022/09/21 01:32:04;;;;;;;12.55;3.90;;;9.10;99.90;;;;;;5113084;28;20042;-53
2022/09/21 01:34:43;;;;;;;7.38;3.88;;;9.10;99.90;;;;;;5113072;28;20383;-52
2022/09/21 01:37:15;;;;;;;8.07;3.88;;;9.00;99.90;;;;;;5112892;28;20044;-56
2022/09/21 01:39:44;;;;;;;8.02;3.88;;;9.00;99.90;;;;;;5092531;28;20093;-56
2022/09/21 01:42:12;;;;;;;10.45;4.00;;;8.90;99.90;;;;;;5092616;28;20070;-55
2022/09/21 01:44:41;;;;;;;8.75;3.85;;;8.90;99.90;;;;;;5092529;28;20075;-53
2022/09/21 01:47:11;;;;;;;8.52;3.70;;;8.90;99.90;;;;;;5092363;28;20058;-54
2022/09/21 01:49:42;;;;;;;11.43;4.72;;;8.90;99.90;;;;;;5092599;28;20039;-54
2022/09/21 01:52:43;;;;;;;8.60;3.97;;;8.90;99.90;;;;;;5074317;28;20051;-54
2022/09/21 01:55:27;;;;;;;7.43;3.65;;;8.90;99.90;;;;;;5092037;28;20416;-55
2022/09/21 01:58:11;;;;;;;8.48;3.60;;;8.90;99.90;;;;;;5092218;28;20373;-54
2022/09/21 02:00:38;;;;;;;9.07;4.10;;;8.90;99.90;;;;;;5092295;28;20040;-55
2022/09/21 02:03:21;;;;;;;8.82;4.10;;;8.90;99.90;;;;;;5092340;28;20046;-56
2022/09/21 02:05:46;;;;;;;9.93;4.00;;;9.00;99.90;;;;;;5092376;28;20055;-56
2022/09/21 02:08:12;;;;;;;8.18;4.10;;;9.00;99.90;;;;;;5092076;28;20044;-54
2022/09/21 02:10:48;;;;;;;9.43;4.10;;;8.90;99.90;;;;;;5074294;28;20044;-53
2022/09/21 02:13:16;;;;;;;9.48;4.10;;;9.00;99.90;;;;;;5092260;28;20489;-54
2022/09/21 02:15:54;;;;;;;6.63;3.53;;;8.90;99.90;;;;;;5091978;28;20050;-54
2022/09/21 02:18:39;;;;;;;7.78;3.78;;;8.80;99.90;;;;;;5073604;28;20044;-53
2022/09/21 02:21:11;;;;;;;7.97;3.65;;;8.80;99.90;;;;;;5092159;28;20100;-55
2022/09/21 02:23:43;;;;;;;8.55;4.80;;;8.70;99.90;;;;;;5092156;28;20051;-53
2022/09/21 02:26:16;;;;;;;7.78;3.83;;;8.80;99.90;;;;;;5091777;28;20051;-54
2022/09/21 02:29:17;;;;;;;8.35;3.45;;;8.90;99.90;;;;;;5091977;28;20036;-54
2022/09/21 02:31:56;;;;;;;7.30;3.47;;;8.80;99.90;;;;;;5046666;28;20049;-54
2022/09/21 02:34:44;;;;;;;9.85;3.72;;;8.80;99.90;;;;;;5073814;28;20036;-54
2022/09/21 02:37:22;;;;;;;6.53;3.63;;;8.80;99.90;;;;;;5091638;28;20090;-55
2022/09/21 02:39:56;;;;;;;9.63;4.00;;;8.80;99.90;;;;;;5092157;28;20392;-55
2022/09/21 02:42:27;;;;;;;6.50;3.78;;;8.90;99.90;;;;;;5112098;28;20031;-53
2022/09/21 02:45:18;;;;;;;7.80;3.78;;;8.80;99.90;;;;;;5112027;28;20042;-52
2022/09/21 02:47:58;;;;;;;8.77;3.60;;;8.80;99.90;;;;;;5113928;28;20039;-55
2022/09/21 02:50:50;;;;;;;10.98;4.20;;;8.80;99.90;;;;;;5116322;28;20058;-55
2022/09/21 02:53:27;;;;;;;7.63;3.30;;;8.70;99.90;;;;;;5116139;28;20538;-53
2022/09/21 02:55:56;;;;;;;9.25;3.72;;;8.80;99.90;;;;;;5115712;28;20407;-52
2022/09/21 02:58:25;;;;;;;9.65;3.88;;;8.80;99.90;;;;;;5116189;28;20372;-55
2022/09/21 03:00:53;;;;;;;9.60;3.70;;;8.80;99.90;;;;;;5116136;28;20076;-53
2022/09/21 03:03:22;;;;;;;8.73;3.65;;;8.70;99.90;;;;;;5115965;28;20054;-52
2022/09/21 03:05:50;;;;;;;8.10;3.83;;;8.70;99.90;;;;;;5116023;28;20486;-54
2022/09/21 03:08:17;;;;;;;6.32;3.75;;;8.60;99.90;;;;;;5115808;28;20519;-55
2022/09/21 03:10:45;;;;;;;8.27;4.03;;;8.60;99.90;;;;;;5115612;28;20435;-53
2022/09/21 03:13:11;;;;;;;7.50;3.50;;;8.50;99.90;;;;;;5115993;28;20380;-54
2022/09/21 03:15:38;;;;;;;7.72;3.50;;;8.50;99.90;;;;;;5115892;28;20051;-55
2022/09/21 03:18:08;;;;;;;6.43;3.45;;;8.50;99.90;;;;;;5115647;28;20044;-54
2022/09/21 03:20:35;;;;;;;8.18;3.90;;;8.40;99.90;;;;;;5115457;28;20075;-55
2022/09/21 03:23:01;;;;;;;7.80;3.42;;;8.40;99.90;;;;;;5115426;28;20035;-53
2022/09/21 03:25:28;;;;;;;8.82;3.70;;;8.40;99.90;;;;;;5115678;28;20042;-55
2022/09/21 03:27:54;;;;;;;7.90;3.42;;;8.40;99.90;;;;;;5115225;28;20043;-54
2022/09/21 03:30:21;;;;;;;10.38;4.70;;;8.40;99.90;;;;;;5115296;28;20104;-55
2022/09/21 03:32:50;;;;;;;6.88;3.80;;;8.50;99.90;;;;;;5115130;28;20043;-53
2022/09/21 03:35:18;;;;;;;8.73;3.70;;;8.50;99.90;;;;;;5115340;28;20427;-53
2022/09/21 03:37:44;;;;;;;8.38;3.80;;;8.40;99.90;;;;;;5110539;28;20484;-55
2022/09/21 03:40:11;;;;;;;9.27;3.70;;;8.40;99.90;;;;;;5098323;28;20039;-55
2022/09/21 03:42:38;;;;;;;7.93;4.03;;;8.40;99.90;;;;;;5115091;28;20058;-54
2022/09/21 03:45:04;;;;;;;9.93;3.88;;;8.50;99.90;;;;;;5115168;28;20047;-54
2022/09/21 03:47:30;;;;;;;6.32;3.42;;;8.50;99.90;;;;;;5115063;28;20035;-55
2022/09/21 03:49:56;;;;;;;8.00;3.67;;;8.40;99.90;;;;;;5114790;28;20039;-55
2022/09/21 03:52:21;;;;;;;8.38;3.70;;;8.40;99.90;;;;;;5114907;28;20125;-54
2022/09/21 03:54:47;;;;;;;8.65;3.60;;;8.40;99.90;;;;;;5115048;28;20526;-55
2022/09/21 03:57:13;;;;;;;9.15;3.90;;;8.40;99.90;;;;;;5114813;28;20039;-54
2022/09/21 03:59:39;;;;;;;8.15;3.65;;;8.40;99.90;;;;;;5113637;28;20031;-55
2022/09/21 04:02:04;;;;;;;8.35;4.07;;;8.40;99.90;;;;;;5114616;28;20040;-56
2022/09/21 04:04:30;;;;;;;7.50;3.60;;;8.50;99.90;;;;;;5114899;28;20040;-55
2022/09/21 04:06:57;;;;;;;8.13;4.00;;;8.50;99.90;;;;;;5114590;28;20039;-56
2022/09/21 04:09:22;;;;;;;7.55;3.53;;;8.50;99.90;;;;;;5114891;28;20047;-54
2022/09/21 04:11:48;;;;;;;9.95;3.70;;;8.40;99.90;;;;;;5114631;28;20442;-55
2022/09/21 04:14:14;;;;;;;8.43;4.03;;;8.50;99.90;;;;;;5114746;28;20031;-53
2022/09/21 04:16:40;;;;;;;9.15;4.05;;;8.40;99.90;;;;;;5114451;28;20044;-56
2022/09/21 04:19:05;;;;;;;8.23;3.45;;;8.50;99.90;;;;;;5096026;28;20129;-58
2022/09/21 04:21:32;;;;;;;7.78;3.95;;;8.50;99.90;;;;;;5114434;28;20028;-55
2022/09/21 04:23:57;;;;;;;8.00;3.50;;;8.50;99.90;;;;;;5096579;28;20883;-56
2022/09/21 04:26:26;;;;;;;7.22;3.40;;;8.50;99.90;;;;;;5114554;28;20127;-54
2022/09/21 04:28:53;;;;;;;7.75;3.70;;;8.50;99.90;;;;;;5096209;28;20047;-54
2022/09/21 04:31:20;;;;;;;9.05;3.83;;;8.40;99.90;;;;;;5114192;28;20040;-56
2022/09/21 04:33:50;;;;;;;8.55;4.05;;;8.40;99.90;;;;;;5114157;28;20048;-56
2022/09/21 04:36:18;;;;;;;7.25;3.55;;;8.30;99.90;;;;;;5113982;28;20044;-54
2022/09/21 04:38:44;;;;;;;6.45;3.55;;;8.30;99.90;;;;;;5101094;28;20039;-54
2022/09/21 04:41:10;;;;;;;8.10;3.60;;;8.30;99.90;;;;;;5087561;28;20047;-56
2022/09/21 04:43:35;;;;;;;9.63;4.43;;;8.30;99.90;;;;;;5113977;28;20042;-55
2022/09/21 04:46:11;;;;;;;9.23;3.92;;;8.40;99.90;;;;;;5113772;28;20040;-55
2022/09/21 04:48:38;;;;;;;7.47;3.70;;;8.30;99.90;;;;;;5113881;28;20054;-53
2022/09/21 04:51:06;;;;;;;8.93;3.70;;;8.30;99.90;;;;;;5114141;28;20035;-54
2022/09/21 04:53:32;;;;;;;8.38;3.25;;;8.20;99.90;;;;;;5114303;28;20119;-54
2022/09/21 04:55:58;;;;;;;8.35;3.60;;;8.20;99.90;;;;;;5113292;28;20047;-55
2022/09/21 04:58:24;;;;;;;8.57;3.85;;;8.20;99.90;;;;;;5113681;28;20050;-56
2022/09/21 05:00:51;;;;;;;7.80;3.80;;;8.30;99.90;;;;;;5113558;28;20512;-56
2022/09/21 05:03:18;;;;;;;7.15;3.20;;;8.30;99.90;;;;;;5113565;28;20047;-54
2022/09/21 05:05:54;;;;;;;8.38;4.40;;;8.20;99.90;;;;;;5113566;28;20043;-55
2022/09/21 05:10:01;;;;;;;7.53;3.50;;;8.20;99.90;;;;;;5113711;28;20414;-55
2022/09/21 05:11:15;;;;;;;10.30;3.55;;;8.20;99.90;;;;;;5113049;28;20058;-55
2022/09/21 05:13:41;;;;;;;12.57;4.18;;;8.20;99.90;;;;;;5113357;28;20047;-55
2022/09/21 05:16:08;;;;;;;8.80;5.00;;;8.10;99.90;;;;;;5113255;28;20040;-56
2022/09/21 05:18:34;;;;;;;8.13;4.13;;;8.20;99.90;;;;;;5113468;28;20114;-54
2022/09/21 05:21:01;;;;;;;8.80;4.05;;;8.20;99.90;;;;;;5113042;28;20039;-54
2022/09/21 05:23:30;;;;;;;8.50;3.63;;;8.10;99.90;;;;;;5113659;28;20586;-56
2022/09/21 05:25:57;;;;;;;6.97;3.88;;;8.10;99.90;;;;;;5094929;28;20455;-54
2022/09/21 05:28:24;;;;;;;9.00;3.78;;;8.20;99.90;;;;;;5113281;28;20046;-53
2022/09/21 05:31:26;;;;;;;10.57;4.38;;;8.10;99.90;;;;;;5112949;28;20074;-53
2022/09/21 05:33:57;;;;;;;9.15;4.50;;;8.10;99.90;;;;;;5106308;28;20062;-54
2022/09/21 05:36:35;;;;;;;10.07;5.70;;;8.10;99.90;;;;;;5111256;28;20043;-54
2022/09/21 05:39:01;;;;;;;12.82;7.30;;;8.20;99.90;;;;;;5095952;28;20079;-53
2022/09/21 05:41:27;;;;;;;16.02;9.05;;;8.10;99.90;;;;;;5105216;28;20082;-56
2022/09/21 05:43:52;;;;;;;14.52;8.27;;;8.10;99.90;;;;;;5111425;28;20036;-54
2022/09/21 05:46:32;;;;;;;14.13;8.98;;;8.00;99.90;;;;;;5111178;28;20551;-54
2022/09/21 05:49:43;;;;;;;16.67;9.50;;;8.00;99.90;;;;;;5111397;28;20048;-54
2022/09/21 05:52:27;;;;;;;16.88;8.90;;;8.10;99.90;;;;;;5064441;28;20048;-54
2022/09/21 05:55:27;;;;;;;15.85;8.80;;;8.20;99.90;;;;;;5110903;28;20055;-56
2022/09/21 05:58:23;;;;;;;15.05;8.25;;;8.20;99.90;;;;;;5110935;28;20039;-55
2022/09/21 06:01:19;;;;;;;14.68;8.65;;;8.30;99.90;;;;;;5110973;28;20101;-54
2022/09/21 06:03:47;;;;;;;14.85;8.43;;;8.30;99.90;;;;;;5110804;28;20050;-51
2022/09/21 06:06:13;;;;;;;11.77;6.53;;;8.40;99.90;;;;;;5111053;28;20078;-54
2022/09/21 06:08:39;;;;;;;10.95;5.75;;;8.40;99.90;;;;;;5110635;28;20514;-54
2022/09/21 06:11:04;;;;;;;8.98;4.80;;;8.40;99.90;;;;;;5092414;28;20067;-54
2022/09/21 06:13:30;;;;;;;12.25;5.30;;;8.50;99.90;;;;;;5092337;28;20043;-52
2022/09/21 06:15:57;;;;;;;10.38;4.93;;;8.50;99.90;;;;;;5110320;28;20415;-56
2022/09/21 06:18:23;;;;;;;8.68;4.25;;;8.50;99.90;;;;;;5110360;28;20050;-55
2022/09/21 06:20:48;;;;;;;10.35;4.35;;;8.60;99.90;;;;;;5110904;28;20043;-53
2022/09/21 06:23:14;;;;;;;8.68;3.95;;;8.70;99.90;;;;;;5109926;28;20042;-54
2022/09/21 06:25:40;;;;;;;7.88;4.03;;;8.90;99.90;;;;;;5092828;28;20032;-56
2022/09/21 06:28:11;;;;;;;12.45;4.60;;;8.80;99.90;;;;;;5110814;28;20055;-55
2022/09/21 06:30:38;;;;;;;10.20;4.68;;;8.80;99.90;;;;;;5110604;28;20555;-54
2022/09/21 06:33:05;;;;;;;7.60;4.53;;;8.90;99.90;;;;;;5110401;28;20047;-56
2022/09/21 06:35:33;;;;;;;10.25;4.20;;;9.00;99.90;;;;;;5110385;28;20049;-54
2022/09/21 06:38:04;;;;;;;9.13;3.53;;;9.00;99.90;;;;;;5103625;28;20032;-55
2022/09/21 06:40:31;;;;;;;9.48;4.10;;;9.10;99.90;;;;;;5096495;28;20042;-53
2022/09/21 06:42:57;;;;;;;10.02;4.38;;;9.10;99.90;;;;;;5110372;28;20559;-54
2022/09/21 06:45:27;;;;;;;9.38;4.15;;;9.20;99.90;;;;;;5110564;28;20403;-54
2022/09/21 06:47:53;;;;;;;9.35;4.50;;;9.20;99.90;;;;;;5110037;28;20046;-51
2022/09/21 06:50:19;;;;;;;7.35;4.03;;;9.30;99.90;;;;;;5109983;28;20036;-55
2022/09/21 06:52:45;;;;;;;7.70;5.13;;;9.40;99.90;;;;;;5107639;28;20039;-55
2022/09/21 06:55:10;;;;;;;7.65;3.60;;;9.40;99.90;;;;;;5100488;28;20388;-55
2022/09/21 06:57:37;;;;;;;7.50;3.85;;;9.40;99.90;;;;;;5099934;28;20487;-55
2022/09/21 07:00:06;;;;;;;7.85;3.50;;;9.50;99.90;;;;;;5096490;28;20100;-56
2022/09/21 07:02:31;;;;;;;8.02;3.83;;;9.60;99.90;;;;;;5100157;28;20067;-56
2022/09/21 07:04:58;;;;;;;8.60;3.70;;;9.70;99.90;;;;;;5077919;28;20032;-55
2022/09/21 07:07:24;;;;;;;8.85;3.67;;;9.80;99.90;;;;;;5089996;28;20040;-57
2022/09/21 07:09:50;;;;;;;7.68;3.97;;;9.80;99.90;;;;;;5089966;28;20043;-56
2022/09/21 07:12:17;;;;;;;7.70;4.10;;;10.00;99.90;;;;;;5089582;28;20036;-56
2022/09/21 07:14:45;;;;;;;10.23;4.25;;;10.00;99.90;;;;;;5089659;28;20063;-56
2022/09/21 07:17:13;;;;;;;8.40;3.65;;;10.10;99.90;;;;;;5089397;28;20047;-55
2022/09/21 07:19:39;;;;;;;8.93;3.97;;;10.20;99.90;;;;;;5071453;28;20043;-55
2022/09/21 07:22:05;;;;;;;9.27;3.85;;;10.30;99.90;;;;;;5089578;28;20484;-57
2022/09/21 07:24:31;;;;;;;8.15;4.40;;;10.40;99.90;;;;;;5089574;28;20032;-55
2022/09/21 07:26:57;;;;;;;9.15;3.78;;;10.40;99.90;;;;;;5089490;28;20537;-57
2022/09/21 07:29:22;;;;;;;9.23;4.70;;;10.60;99.90;;;;;;5071571;28;20461;-55
2022/09/21 07:31:48;;;;;;;12.30;3.55;;;10.70;99.90;;;;;;5089744;28;20047;-56
2022/09/21 07:34:14;;;;;;;12.27;3.13;;;10.80;99.90;;;;;;5091895;28;20039;-56
2022/09/21 07:36:39;;;;;;;10.02;3.10;;;10.90;99.90;;;;;;5093038;28;20048;-57
2022/09/21 07:39:07;;;;;;;12.93;3.50;;;11.10;99.90;;;;;;5093114;28;20032;-56
2022/09/21 07:41:33;;;;;;;11.23;3.40;;;11.20;99.90;;;;;;5092829;28;20065;-57
2022/09/21 07:43:59;;;;;;;9.20;2.90;;;11.30;99.90;;;;;;5093257;28;20040;-56
2022/09/21 07:46:24;;;;;;;9.88;3.50;;;11.30;99.90;;;;;;5093397;28;20119;-57
2022/09/21 07:48:53;;;;;;;8.88;3.17;;;11.40;99.90;;;;;;5093127;28;20032;-56
2022/09/21 07:51:19;;;;;;;9.68;3.00;;;11.60;99.90;;;;;;5093169;28;20093;-56
2022/09/21 07:53:44;;;;;;;8.90;2.67;;;11.60;99.90;;;;;;5092969;28;20431;-57
2022/09/21 07:56:16;;;;;;;10.15;2.90;;;11.70;99.90;;;;;;5092811;28;20075;-55
2022/09/21 08:01:28;;;;;;;7.05;2.60;;;11.90;99.90;;;;;;5093248;28;20074;-54
2022/09/21 08:03:55;;;;;;;7.43;2.42;;;12.00;99.90;;;;;;5092863;28;20046;-55
2022/09/21 08:06:22;;;;;;;7.85;2.88;;;12.10;99.90;;;;;;5075943;28;20062;-55
2022/09/21 08:08:49;;;;;;;7.75;2.83;;;12.30;99.90;;;;;;5094041;28;20374;-53
2022/09/21 08:11:16;;;;;;;9.65;4.40;;;12.20;99.90;;;;;;5093941;28;20040;-56
2022/09/21 08:13:42;;;;;;;8.43;2.65;;;12.30;99.90;;;;;;5094149;28;20373;-54
2022/09/21 08:16:09;;;;;;;8.63;3.10;;;12.40;99.90;;;;;;5075736;28;20059;-56
2022/09/21 08:18:39;;;;;;;9.73;2.92;;;12.50;99.90;;;;;;5093568;28;20040;-56
2022/09/21 08:21:06;;;;;;;9.95;3.05;;;12.50;99.90;;;;;;5098566;28;20067;-56
2022/09/21 08:23:32;;;;;;;11.55;2.40;;;12.60;99.90;;;;;;5102748;28;20047;-57
2022/09/21 08:26:04;;;;;;;10.75;2.50;;;12.80;99.90;;;;;;5086526;28;20036;-56
2022/09/21 08:28:30;;;;;;;;;;;12.80;99.90;;;;;;5086486;28;20533;-56
2022/09/21 08:30:59;;;;;;;8.43;2.60;;;12.90;99.90;;;;;;5102197;28;19959;-55
2022/09/21 08:33:26;;;;;;;8.25;2.00;;;13.00;99.90;;;;;;5103293;28;20039;-55
2022/09/21 08:35:57;;;;;;;9.23;2.25;;;13.00;99.90;;;;;;5103172;28;20464;-56
2022/09/21 08:38:23;;;;;;;10.00;2.00;;;13.10;99.90;;;;;;5103637;28;20031;-56
2022/09/21 08:40:50;;;;;;;8.15;2.00;;;13.20;99.90;;;;;;5102159;28;20043;-56
2022/09/21 08:43:39;;;;;;;9.23;2.08;;;13.30;99.90;;;;;;5085914;28;20496;-55
2022/09/21 08:46:08;;;;;;;7.28;1.70;;;13.30;99.90;;;;;;5101693;28;20093;-55
2022/09/21 08:48:39;;;;;;;7.60;1.38;;;13.40;99.90;;;;;;5102450;28;20055;-55
2022/09/21 08:51:10;;;;;;;6.78;1.13;;;13.50;99.90;;;;;;5102571;28;20082;-55
2022/09/21 08:53:42;;;;;;;9.93;1.60;;;13.50;99.90;;;;;;5101923;28;20096;-55
2022/09/21 08:56:12;;;;;;;7.53;1.30;;;13.60;99.90;;;;;;5095879;28;20059;-56
2022/09/21 08:58:41;;;;;;;8.25;1.48;;;13.60;99.90;;;;;;5109244;28;20077;-56
2022/09/21 09:01:19;;;;;;;9.65;1.42;;;13.70;99.90;;;;;;5103598;28;20051;-56
2022/09/21 09:04:22;;;;;;;3.88;0.90;;;13.70;99.90;;;;;;5101092;28;20548;-56
2022/09/21 09:07:03;;;;;;;12.70;1.75;;;13.80;99.90;;;;;;5097083;28;20488;-55
2022/09/21 09:09:59;;;;;;;8.43;1.23;;;13.90;99.90;;;;;;5092956;28;20040;-54
2022/09/21 09:12:43;;;;;;;10.68;1.25;;;14.00;99.90;;;;;;5092940;28;20040;-55
2022/09/21 09:15:14;;;;;;;10.93;2.30;;;14.00;99.90;;;;;;5092806;28;20058;-58
2022/09/21 09:17:45;;;;;;;8.53;2.67;;;14.10;99.90;;;;;;5092373;28;20476;-55
2022/09/21 09:20:14;;;;;;;6.75;1.73;;;14.20;99.90;;;;;;5091776;28;20281;-56
2022/09/21 09:22:45;;;;;;;6.72;2.22;;;14.20;99.90;;;;;;5092716;28;20480;-56
2022/09/21 09:25:21;;;;;;;9.15;1.10;;;14.20;99.90;;;;;;5092651;28;20094;-56
2022/09/21 09:27:55;;;;;;;7.53;1.23;;;14.20;99.90;;;;;;5074606;28;20040;-55
2022/09/21 09:30:24;;;;;;;3.67;0.82;;;14.20;99.90;;;;;;5092812;28;20044;-56
2022/09/21 09:32:59;;;;;;;6.53;1.00;;;14.30;99.90;;;;;;5092642;28;20055;-55
2022/09/21 09:35:33;;;;;;;3.72;0.80;;;14.40;99.90;;;;;;5092484;28;20411;-55
2022/09/21 09:38:10;;;;;;;5.68;0.93;;;14.40;99.90;;;;;;5091869;28;20117;-54
2022/09/21 09:41:10;;;;;;;7.05;1.52;;;14.40;99.90;;;;;;5092463;28;20028;-56
2022/09/21 09:44:08;;;;;;;10.45;1.25;;;14.60;99.90;;;;;;5074082;28;20039;-55
2022/09/21 09:46:58;;;;;;;8.05;1.00;;;14.60;99.90;;;;;;5053507;28;20389;-56
2022/09/21 09:49:35;;;;;;;9.90;2.00;;;14.70;99.90;;;;;;5074137;28;20051;-56
2022/09/21 09:52:02;;;;;;;9.27;1.27;;;14.70;99.90;;;;;;5092349;28;20044;-55
2022/09/21 09:54:33;;;;;;;10.75;1.48;;;14.90;99.90;;;;;;5092216;28;20036;-56
2022/09/21 09:57:03;;;;;;;8.23;1.10;;;14.80;99.90;;;;;;5092302;28;20044;-55
2022/09/21 09:59:36;;;;;;;6.20;1.00;;;14.80;99.90;;;;;;5108003;28;20079;-55
2022/09/21 10:02:23;;;;;;;7.93;1.23;;;14.70;99.90;;;;;;5112288;28;20024;-56
2022/09/21 10:05:07;;;;;;;4.60;1.00;;;14.70;99.90;;;;;;5102908;28;20032;-55
2022/09/21 10:07:42;;;;;;;4.70;0.90;;;14.60;99.90;;;;;;5103237;28;20116;-55
2022/09/21 10:10:32;;;;;;;5.07;1.15;;;14.60;99.90;;;;;;5103559;28;20040;-55
2022/09/21 10:13:29;;;;;;;4.93;1.10;;;14.50;99.90;;;;;;5100444;28;20040;-55
2022/09/21 10:16:01;;;;;;;9.45;1.58;;;14.50;99.90;;;;;;5099825;28;20496;-55
2022/09/21 10:18:49;;;;;;;6.63;1.13;;;14.50;99.90;;;;;;5101014;28;20043;-54
2022/09/21 10:21:22;;;;;;;7.50;1.08;;;14.60;99.90;;;;;;5101988;28;20036;-55
2022/09/21 10:23:53;;;;;;;7.35;1.00;;;14.80;99.90;;;;;;5095701;28;20028;-58
2022/09/21 10:26:19;;;;;;;6.63;2.65;;;14.80;99.90;;;;;;5098452;28;20124;-56
2022/09/21 10:29:15;;;;;;;4.95;0.82;;;14.80;99.90;;;;;;5101575;28;20474;-56
2022/09/21 10:31:55;;;;;;;8.05;1.20;;;14.70;99.90;;;;;;5094763;28;20042;-56
2022/09/21 10:34:20;;;;;;;4.97;1.08;;;14.80;99.90;;;;;;5091785;28;20127;-57
2022/09/21 10:36:53;;;;;;;6.80;1.45;;;14.90;99.90;;;;;;5073513;28;20119;-57
2022/09/21 10:39:25;;;;;;;7.63;1.63;;;15.00;99.90;;;;;;5091914;28;20036;-52
2022/09/21 10:42:04;;;;;;;6.28;1.15;;;15.00;99.90;;;;;;5087972;28;20516;-56
2022/09/21 10:44:51;;;;;;;8.27;1.17;;;15.00;99.90;;;;;;5091717;28;20040;-56
2022/09/21 10:47:30;;;;;;;3.15;0.68;;;15.20;99.90;;;;;;5091808;28;20130;-56
2022/09/21 10:49:59;;;;;;;5.78;1.30;;;15.30;99.90;;;;;;5091830;28;20377;-57
2022/09/21 10:52:32;;;;;;;4.82;1.17;;;15.30;99.90;;;;;;5091890;28;20068;-57
2022/09/21 10:54:59;;;;;;;5.70;1.02;;;15.10;99.90;;;;;;5091598;28;20056;-56
2022/09/21 10:57:26;;;;;;;7.30;1.00;;;15.00;99.90;;;;;;5091654;28;20052;-56
2022/09/21 10:59:52;;;;;;;4.95;0.80;;;14.90;99.90;;;;;;5091577;28;20040;-54
2022/09/21 11:02:28;;;;;;;5.43;0.82;;;14.80;99.90;;;;;;5091176;28;20093;-54
2022/09/21 11:05:05;;;;;;;6.47;0.98;;;14.80;99.90;;;;;;5091449;28;20051;-56
2022/09/21 11:07:38;;;;;;;4.60;0.93;;;14.70;99.90;;;;;;5090904;28;20044;-55
2022/09/21 11:10:34;;;;;;;8.32;1.45;;;14.70;99.90;;;;;;5095615;28;20397;-54
2022/09/21 11:13:08;;;;;;;5.22;0.80;;;14.60;99.90;;;;;;5076570;28;20127;-55
2022/09/21 11:15:59;;;;;;;5.95;0.90;;;14.50;99.90;;;;;;5094681;28;20174;-55
2022/09/21 11:18:42;;;;;;;4.35;0.90;;;14.50;99.90;;;;;;5094561;28;20040;-55
2022/09/21 11:21:42;;;;;;;6.18;1.25;;;14.50;99.90;;;;;;5094705;28;20040;-54
2022/09/21 11:24:44;;;;;;;5.93;1.10;;;14.50;99.90;;;;;;5094873;28;20105;-55
2022/09/21 11:27:22;;;;;;;4.38;0.90;;;14.50;99.90;;;;;;5076299;28;20056;-56
2022/09/21 11:30:02;;;;;;;7.85;1.10;;;14.50;99.90;;;;;;5095215;28;20043;-55
2022/09/21 11:32:41;;;;;;;3.90;0.70;;;14.40;99.90;;;;;;5094732;28;20043;-55
2022/09/21 11:35:25;;;;;;;6.03;0.88;;;14.40;99.90;;;;;;5095223;28;20083;-55
2022/09/21 11:38:06;;;;;;;3.17;0.80;;;14.40;99.90;;;;;;5094997;28;20180;-56
2022/09/21 11:40:53;;;;;;;6.38;0.80;;;14.40;99.90;;;;;;5094615;28;20032;-55
2022/09/21 11:43:22;;;;;;;4.35;0.82;;;14.40;99.90;;;;;;5094579;28;20047;-57
2022/09/21 11:46:04;;;;;;;6.57;0.80;;;14.40;99.90;;;;;;5095014;28;20048;-56
2022/09/21 11:48:32;;;;;;;4.22;0.80;;;14.70;99.90;;;;;;5094809;28;20048;-54
2022/09/21 11:51:37;;;;;;;4.53;1.83;;;14.80;99.90;;;;;;5094812;28;20040;-56
2022/09/21 11:54:38;;;;;;;5.57;0.68;;;14.70;99.90;;;;;;5090389;28;20108;-54
2022/09/21 11:57:24;;;;;;;5.95;1.40;;;15.00;99.90;;;;;;5103992;28;20051;-57
2022/09/21 12:00:18;;;;;;;6.28;1.08;;;15.00;99.90;;;;;;5104720;28;20040;-56
2022/09/21 12:03:38;;;;;;;4.22;0.75;;;15.20;99.90;;;;;;5101610;28;20047;-55
2022/09/21 12:06:28;;;;;;;1.77;0.52;;;15.40;99.90;;;;;;5012525;28;20069;-55
2022/09/21 12:09:38;;;;;;;5.47;0.90;;;15.60;99.90;;;;;;5097141;28;20391;-55
2022/09/21 12:12:12;;;;;;;7.53;1.73;;;15.50;99.90;;;;;;5078037;28;20052;-55
2022/09/21 12:14:54;;;;;;;7.82;1.17;;;15.40;99.90;;;;;;5094248;28;20039;-57
2022/09/21 12:17:38;;;;;;;4.72;0.75;;;15.30;99.90;;;;;;5094291;28;20048;-55
2022/09/21 12:20:33;;;;;;;3.20;0.80;;;15.20;99.90;;;;;;5093107;28;20553;-56
2022/09/21 12:23:03;;;;;;;2.75;0.80;;;15.40;99.90;;;;;;5075851;28;20492;-54
2022/09/21 12:25:38;;;;;;;5.78;1.00;;;15.40;99.90;;;;;;5094196;28;20036;-51
2022/09/21 12:28:08;;;;;;;6.70;1.10;;;15.40;99.90;;;;;;5075909;28;20036;-53
2022/09/21 12:30:38;;;;;;;5.18;0.90;;;15.60;99.90;;;;;;5093977;28;20040;-56
2022/09/21 12:33:29;;;;;;;6.05;0.80;;;15.50;99.90;;;;;;5093864;28;20028;-55
2022/09/21 12:36:13;;;;;;;6.25;1.30;;;15.40;99.90;;;;;;5093770;28;20078;-56
2022/09/21 12:38:49;;;;;;;5.10;1.08;;;15.30;99.90;;;;;;5093745;28;20043;-52
2022/09/21 12:41:25;;;;;;;5.55;0.90;;;15.20;99.90;;;;;;5093680;28;20557;-54
2022/09/21 12:43:59;;;;;;;4.72;0.82;;;15.20;99.90;;;;;;5093462;28;20110;-53
2022/09/21 12:46:55;;;;;;;4.07;0.90;;;15.20;99.90;;;;;;5093839;28;20044;-56
2022/09/21 12:49:29;;;;;;;7.20;1.17;;;15.20;99.90;;;;;;5093939;28;20032;-55
2022/09/21 12:51:59;;;;;;;6.18;0.90;;;15.40;99.90;;;;;;5093306;28;20503;-55
2022/09/21 12:54:37;;;;;;;6.65;1.00;;;15.30;99.90;;;;;;5093375;28;20388;-53
2022/09/21 12:57:30;;;;;;;5.18;1.25;;;15.30;99.90;;;;;;5093349;28;20044;-54
2022/09/21 13:00:04;;;;;;;3.60;0.70;;;15.30;99.90;;;;;;5093151;28;20047;-56
2022/09/21 13:02:36;;;;;;;5.90;0.88;;;15.20;99.90;;;;;;5093183;28;20384;-53
2022/09/21 13:05:19;;;;;;;4.72;1.48;;;15.10;99.90;;;;;;5093626;28;20039;-54
2022/09/21 13:08:05;;;;;;;4.97;1.38;;;15.10;99.90;;;;;;5092584;28;20040;-57
2022/09/21 13:10:38;;;;;;;4.15;0.82;;;15.00;99.90;;;;;;5093202;28;20113;-55
2022/09/21 13:13:09;;;;;;;4.43;1.10;;;15.00;99.90;;;;;;5093162;28;20040;-54
2022/09/21 13:15:44;;;;;;;5.32;1.00;;;14.90;99.90;;;;;;5093201;28;20153;-55
2022/09/21 13:18:27;;;;;;;4.95;0.85;;;15.00;99.90;;;;;;5092893;28;20048;-55
2022/09/21 13:20:54;;;;;;;;;;;15.00;99.90;;;;;;5093295;28;20036;-56
2022/09/21 13:23:28;;;;;;;5.95;0.98;;;15.00;99.90;;;;;;5092653;28;19916;-55
2022/09/21 13:26:06;;;;;;;5.80;1.30;;;15.00;99.90;;;;;;5092548;28;20053;-55